CDT,Max TemperatureF,Mean TemperatureF,Min TemperatureF,Max Dew PointF,MeanDew PointF,Min DewpointF,Max Humidity, Mean Humidity, Min Humidity, Max Sea Level PressureIn, Mean Sea Level PressureIn, Min Sea Level PressureIn, Max VisibilityMiles, Mean VisibilityMiles, Min VisibilityMiles, Max Wind SpeedMPH, Mean Wind SpeedMPH, Max Gust SpeedMPH,PrecipitationIn, CloudCover, Events, WindDirDegrees
2013-6-1,60,53,46,57,49,44,93,83,72,30.12,29.81,29.56,10,9,4,33,18,41,0.04,8,Rain,331
2013-6-2,66,53,40,46,43,40,96,68,40,30.17,30.10,30.01,10,10,10,9,5,13,0.00,1,,46
2013-6-3,77,63,49,48,47,44,86,61,36,29.99,29.86,29.76,10,10,10,33,18,45,0.03,0,,136
2013-6-4,76,65,54,57,51,45,84,59,33,30.06,29.91,29.81,10,10,4,26,11,36,0.06,3,Rain-Thunderstorm,254
2013-6-5,68,59,50,52,48,45,86,70,53,30.05,30.03,30.00,10,10,10,18,11,24,0.00,5,,312
2013-6-6,69,60,50,54,50,47,93,71,49,30.06,30.03,30.01,10,10,10,15,8,22,0.00,5,,352
2013-6-7,75,60,45,52,48,43,100,69,38,30.06,29.99,29.81,10,7,0,15,5,36,0.00,1,Fog,150
2013-6-8,62,59,56,61,56,49,100,80,60,29.80,29.73,29.70,10,8,2,21,12,28,1.12,8,Rain-Thunderstorm,129
2013-6-9,71,63,54,59,57,55,93,80,66,29.88,29.78,29.68,10,10,10,26,14,35,0.07,7,Rain,345
2013-6-10,82,67,51,64,56,50,100,74,47,29.87,29.82,29.74,10,6,0,20,10,23,0.00,0,Fog,163
2013-6-11,90,76,62,66,62,58,93,66,38,29.85,29.77,29.72,10,10,10,26,13,33,T,1,,89
2013-6-12,72,65,57,60,55,52,80,67,53,30.09,29.91,29.68,10,10,10,35,14,43,T,5,,350
2013-6-13,80,67,53,55,51,48,93,63,33,30.15,30.08,29.97,10,10,10,16,6,18,0.00,1,,149
2013-6-14,87,75,63,67,60,53,79,61,43,29.99,29.82,29.73,10,10,10,29,12,35,T,2,,156
2013-6-15,83,71,59,64,55,45,87,57,26,29.98,29.92,29.83,10,10,10,28,7,37,T,1,Rain,356
2013-6-16,85,70,54,58,52,46,89,59,28,30.03,29.96,29.91,10,10,10,23,7,31,T,0,Rain,238
2013-6-17,82,70,57,56,53,48,86,61,35,30.05,30.01,29.96,10,10,10,21,9,21,0.00,0,,323
2013-6-18,84,69,54,56,53,50,93,58,33,30.07,30.02,29.94,10,10,10,13,5,16,0.00,0,,27
2013-6-19,90,75,60,63,59,54,80,57,39,29.96,29.87,29.77,10,10,10,24,13,31,0.00,1,,152
2013-6-20,87,79,71,71,66,61,84,64,53,29.83,29.78,29.72,10,10,7,25,12,32,0.00,4,,163
2013-6-21,93,80,66,72,65,58,90,71,50,29.87,29.78,29.68,10,10,9,36,16,46,0.01,3,Rain-Thunderstorm,70
2013-6-22,81,72,62,67,64,60,87,69,51,29.95,29.83,29.69,10,9,2,47,12,58,0.59,4,Rain-Thunderstorm,109
2013-6-23,80,71,62,62,60,56,93,69,45,29.91,29.81,29.69,10,9,1,35,7,40,0.20,3,Rain-Thunderstorm,285
2013-6-24,83,73,62,70,64,59,93,76,58,29.92,29.78,29.70,10,10,8,21,9,31,0.02,2,Rain-Thunderstorm,143
2013-6-25,86,78,69,71,69,66,97,76,55,29.71,29.66,29.63,10,9,5,21,10,26,0.00,1,,151
2013-6-26,91,80,68,71,62,55,87,60,32,29.85,29.79,29.67,10,10,10,17,7,17,0.00,0,,278
2013-6-27,89,79,69,65,60,54,84,57,29,29.98,29.93,29.87,10,10,10,15,8,22,T,2,Rain,305
2013-6-28,86,74,62,61,55,48,78,54,29,30.03,29.99,29.95,10,10,10,29,14,37,0.00,0,,315
2013-6-29,81,71,60,59,56,54,84,63,42,30.02,29.99,29.95,10,10,10,23,13,29,0.00,1,,339
2013-6-30,81,70,58,59,54,47,90,60,30,30.17,30.11,30.04,10,10,10,16,5,29,0.00,0,,28